createdAt,value
2022-12-28T05:01:08.247Z,2.00
2022-12-28T05:05:10.781Z,1.92
2022-12-28T05:09:13.285Z,2.75
2022-12-28T05:13:15.798Z,2.30
2022-12-28T05:17:19.645Z,2.28
2022-12-28T05:21:24.709Z,2.50
2022-12-28T05:25:27.215Z,2.25
2022-12-28T05:29:29.756Z,2.50
2022-12-28T05:33:35.376Z,2.90
2022-12-28T05:37:37.876Z,2.30
2022-12-28T05:41:40.855Z,2.60
2022-12-28T05:45:43.360Z,1.98
2022-12-28T05:49:47.373Z,2.30
2022-12-28T05:53:50.099Z,2.90
2022-12-28T05:57:55.288Z,1.98
2022-12-28T06:01:57.942Z,2.63
2022-12-28T06:06:06.264Z,2.60
2022-12-28T06:10:09.675Z,2.45
2022-12-28T06:14:12.269Z,2.72
2022-12-28T06:18:14.767Z,2.70
2022-12-28T06:22:18.801Z,2.58
2022-12-28T06:26:22.703Z,2.50
2022-12-28T06:30:26.291Z,2.65
2022-12-28T06:34:28.929Z,2.40
2022-12-28T06:38:34.407Z,2.73
2022-12-28T06:42:36.956Z,2.53
2022-12-28T06:46:39.917Z,2.50
2022-12-28T06:50:42.537Z,2.22
2022-12-28T06:54:46.421Z,2.80
2022-12-28T06:58:51.589Z,3.10
2022-12-28T07:02:58.607Z,2.45
2022-12-28T07:07:01.428Z,3.30
2022-12-28T07:11:07.792Z,2.95
2022-12-28T07:15:11.094Z,2.85
2022-12-28T07:19:14.046Z,2.97
2022-12-28T07:23:16.528Z,2.33
2022-12-28T07:27:20.677Z,3.03
2022-12-28T07:31:24.910Z,2.65
2022-12-28T07:35:28.082Z,2.80
2022-12-28T07:39:30.579Z,3.42
2022-12-28T07:43:34.538Z,3.40
2022-12-28T07:47:37.149Z,3.28
2022-12-28T07:51:40.300Z,3.60
2022-12-28T07:55:43.618Z,3.55
2022-12-28T07:59:47.466Z,3.03
2022-12-28T08:03:54.269Z,3.08
2022-12-28T08:08:03.217Z,3.20
2022-12-28T08:12:06.453Z,3.15
2022-12-28T08:16:11.815Z,2.88
2022-12-28T08:20:14.478Z,2.97
2022-12-28T08:24:19.879Z,2.90
2022-12-28T08:28:22.488Z,3.15
2022-12-28T08:32:26.508Z,2.67
2022-12-28T08:36:30.170Z,2.85
2022-12-28T08:40:32.755Z,2.63
2022-12-28T08:44:35.289Z,3.03
2022-12-28T08:48:39.924Z,2.55
2022-12-28T08:52:42.413Z,2.90
2022-12-28T08:56:46.074Z,2.95
2022-12-28T09:00:48.658Z,2.53
2022-12-28T09:04:52.504Z,2.93
2022-12-28T09:09:05.354Z,2.78
2022-12-28T09:13:09.365Z,2.70
2022-12-28T09:17:11.850Z,2.83
2022-12-28T09:21:17.961Z,2.50
2022-12-28T09:25:20.436Z,2.63
2022-12-28T09:29:23.064Z,2.80
2022-12-28T09:34:15.376Z,2.33
2022-12-28T09:38:06.966Z,2.35
2022-12-28T09:42:16.974Z,2.25
2022-12-28T09:46:22.205Z,2.47
2022-12-28T09:50:31.152Z,2.80
2022-12-28T09:54:35.435Z,2.70
2022-12-28T09:58:46.448Z,2.53
2022-12-28T10:02:55.584Z,2.50
2022-12-28T10:07:01.831Z,2.70
2022-12-28T10:11:06.587Z,2.45
2022-12-28T10:15:13.480Z,2.38
2022-12-28T10:19:18.895Z,2.40
2022-12-28T10:23:26.163Z,2.72
2022-12-28T10:27:33.160Z,2.90
2022-12-28T10:31:38.227Z,2.70
2022-12-28T10:35:43.996Z,2.72
2022-12-28T10:39:52.672Z,2.72
2022-12-28T10:48:23.517Z,2.75
2022-12-28T10:52:27.910Z,2.22
2022-12-28T10:56:32.413Z,2.25
2022-12-28T11:00:36.632Z,2.40
2022-12-28T11:03:20.739Z,2.40
2022-12-28T11:04:53.387Z,2.50
2022-12-28T11:09:06.531Z,1.92
2022-12-28T11:13:22.186Z,2.30
2022-12-28T11:17:29.187Z,2.33
2022-12-28T11:21:32.580Z,1.85
2022-12-28T11:25:37.271Z,2.10
2022-12-28T11:29:43.654Z,2.03
2022-12-28T11:33:51.171Z,2.25
2022-12-28T11:37:56.835Z,2.00
2022-12-28T11:42:37.297Z,2.00
2022-12-28T11:46:41.152Z,1.90
2022-12-28T11:50:53.081Z,1.77
2022-12-28T11:54:57.639Z,1.90
2022-12-28T11:59:21.556Z,2.00
2022-12-28T12:04:02.959Z,1.70
2022-12-28T12:08:41.548Z,1.85
2022-12-28T12:12:54.162Z,2.00
2022-12-28T12:17:03.867Z,1.70
2022-12-28T12:21:15.048Z,1.60
2022-12-28T12:25:25.638Z,1.65
2022-12-28T12:29:38.062Z,1.73
2022-12-28T12:33:45.249Z,2.00
2022-12-28T12:37:55.398Z,1.77
2022-12-28T12:42:12.401Z,1.92
2022-12-28T12:46:38.132Z,1.20
2022-12-28T12:50:58.926Z,1.52
2022-12-28T12:55:20.325Z,1.67
2022-12-28T12:59:53.208Z,1.48
2022-12-28T13:03:57.753Z,1.55
2022-12-28T13:08:02.218Z,2.00
2022-12-28T13:12:13.026Z,1.75
2022-12-28T13:16:20.167Z,1.75
2022-12-28T13:20:23.253Z,1.60
2022-12-28T13:24:28.935Z,1.60
2022-12-28T13:28:33.662Z,1.42
2022-12-28T13:32:38.756Z,1.50
2022-12-28T13:36:48.792Z,1.80
2022-12-28T13:40:53.222Z,2.03
2022-12-28T13:44:58.680Z,1.63
2022-12-28T13:49:02.763Z,1.40
2022-12-28T13:53:11.993Z,1.23
2022-12-28T14:01:43.362Z,1.83
2022-12-28T14:05:50.734Z,1.42
2022-12-28T14:09:54.575Z,1.48
2022-12-28T14:13:58.617Z,1.80
2022-12-28T14:18:01.733Z,2.10
2022-12-28T14:22:26.369Z,1.55
2022-12-28T14:26:30.384Z,1.50
2022-12-28T14:30:43.056Z,1.25
2022-12-28T14:34:49.701Z,1.73
2022-12-28T14:39:04.492Z,1.40
2022-12-28T14:43:11.531Z,1.65
2022-12-28T14:47:36.353Z,1.55
2022-12-28T14:51:44.065Z,1.58
2022-12-28T14:55:58.930Z,1.80
2022-12-28T15:00:04.657Z,1.45
2022-12-28T15:04:07.540Z,1.48
2022-12-28T15:08:11.180Z,1.20
2022-12-28T15:12:18.185Z,1.60
2022-12-28T15:16:23.682Z,1.60
2022-12-28T15:20:27.116Z,1.60
2022-12-28T15:24:33.879Z,1.15
2022-12-28T15:28:39.314Z,1.60
2022-12-28T15:32:41.890Z,1.65
2022-12-28T15:36:45.494Z,1.53
2022-12-28T15:40:48.092Z,1.50
2022-12-28T15:44:53.024Z,1.60
2022-12-28T15:48:56.782Z,1.40
2022-12-28T15:52:59.380Z,1.70
2022-12-28T15:57:01.915Z,1.40
2022-12-28T16:01:06.471Z,1.77
2022-12-28T16:05:12.114Z,1.15
2022-12-28T16:09:15.210Z,1.50
2022-12-28T16:13:17.780Z,1.77
2022-12-28T16:17:22.011Z,1.50
2022-12-28T16:21:26.050Z,1.63
2022-12-28T16:25:28.657Z,1.52
2022-12-28T16:29:31.337Z,1.67
2022-12-28T16:33:35.429Z,1.40
2022-12-28T16:37:38.257Z,1.50
2022-12-28T16:41:41.177Z,1.60
2022-12-28T16:45:45.101Z,1.73
2022-12-28T16:49:49.265Z,1.80
2022-12-28T16:53:51.814Z,1.65
2022-12-28T16:57:54.389Z,1.80
2022-12-28T17:01:57.999Z,3.10
2022-12-28T17:06:02.246Z,3.15
2022-12-28T17:10:05.227Z,2.80
2022-12-28T17:14:10.957Z,2.38
2022-12-28T17:18:13.592Z,2.10
2022-12-28T17:22:17.507Z,2.07
2022-12-28T17:26:20.494Z,1.98
2022-12-28T17:30:23.028Z,1.95
2022-12-28T17:34:25.650Z,2.07
2022-12-28T17:38:29.710Z,2.10
2022-12-28T17:42:32.323Z,2.10
2022-12-28T17:46:40.662Z,2.20
2022-12-28T17:50:43.658Z,2.20
2022-12-28T17:54:47.504Z,1.67
2022-12-28T17:58:54.913Z,2.10
2022-12-28T18:02:57.848Z,1.95
2022-12-28T18:07:00.535Z,2.22
2022-12-28T18:11:04.696Z,2.47
2022-12-28T18:15:08.311Z,1.70
2022-12-28T18:19:10.909Z,2.00
2022-12-28T18:23:13.414Z,1.60
2022-12-28T18:27:18.141Z,1.88
2022-12-28T18:31:21.107Z,2.00
2022-12-28T18:35:25.064Z,2.00
2022-12-28T18:39:27.674Z,1.80
2022-12-28T18:43:31.724Z,1.90
2022-12-28T18:47:35.355Z,1.75
2022-12-28T18:51:37.992Z,1.98
2022-12-28T18:55:45.367Z,1.97
2022-12-28T18:59:49.454Z,1.98
2022-12-28T19:03:55.607Z,1.83
2022-12-28T19:07:58.318Z,1.73
2022-12-28T19:12:00.855Z,1.80
2022-12-28T19:16:07.074Z,1.90
2022-12-28T19:20:10.152Z,1.55
2022-12-28T19:24:15.708Z,1.60
2022-12-28T19:28:18.277Z,1.70
2022-12-28T19:32:22.195Z,1.70
2022-12-28T19:36:25.049Z,1.70
2022-12-28T19:40:27.741Z,1.80
2022-12-28T19:44:30.370Z,1.60
2022-12-28T19:48:34.725Z,1.87
2022-12-28T19:52:37.374Z,1.30
2022-12-28T19:56:39.966Z,1.77
2022-12-28T20:00:42.462Z,1.58
2022-12-28T20:04:46.425Z,1.30
2022-12-28T20:08:50.546Z,1.10
2022-12-28T20:12:53.279Z,1.70
2022-12-28T20:16:55.899Z,1.70
2022-12-28T20:21:20.491Z,1.77
2022-12-28T20:25:23.891Z,1.52
2022-12-28T20:29:26.784Z,1.50
2022-12-28T20:33:31.394Z,1.30
2022-12-28T20:37:37.667Z,1.70
2022-12-28T20:41:57.975Z,1.90
2022-12-28T20:46:00.919Z,2.05
2022-12-28T20:50:03.899Z,2.00
2022-12-28T20:54:07.906Z,1.80
2022-12-28T20:58:10.412Z,1.73
2022-12-28T21:02:13.124Z,1.70
2022-12-28T21:06:15.764Z,1.80
2022-12-28T21:10:19.632Z,1.87
2022-12-28T21:14:22.182Z,2.05
2022-12-28T21:18:24.803Z,1.58
2022-12-28T21:22:27.390Z,1.60
2022-12-28T21:26:31.254Z,1.90
2022-12-28T21:30:33.839Z,1.60
2022-12-28T21:34:36.397Z,1.27
2022-12-28T21:38:40.518Z,1.63
2022-12-28T21:42:44.353Z,1.58
2022-12-28T21:46:49.029Z,1.67
2022-12-28T21:50:51.557Z,1.73
2022-12-28T21:54:54.094Z,1.33
2022-12-28T21:58:59.086Z,1.37
